Portada
METAR-TAF:

METAR-TAF

Aeroports :

Singapur, Singapur

Aeroport Internacional de Singapur-Changi

latitud: 01-22N, longitud: 103-59E, altitud: 5 m

Observació

L'informe es va fer fa 16 minuts, a les 11:00 UTC
Vent 10 kt del Nord-Est, variant entre Nord/Nord-Est i Est
Temperatura 29°C
Humitat 66%
Pressió 1008 hPa
Visibilitat 10 km o més
Escasses núvols a una alçada de 2000 ft
Cel ennuvolat a una alçada de 30000 ft

METAR: WSSS 201100Z 05010KT 020V080 9999 FEW020 BKN300 29/22 Q1008 NOSIG

Hora: 19:16 (11:16 UTC)

Pronòstic

L'informe es va fer fa 3 hores i 16 minuts, a les 08:00 UTC
Pronòstic vàlid del 20 a les 08 UTC al 21 a les 12 UTC
Vent 10 kt del Nord-Est
Visibilitat 10 km o més
Escasses núvols a una alçada de 2000 ft

TAF: WSSS 200800Z 2008/2112 05010KT 9999 FEW020

Observacions i pronòstics meteorològics de més de 4000 aeroports (METAR i TAF).

Les estacions disponibles són els punts grocs i vermells al mapa.

Posi el ratolí al punt desitjat per veure el nom de l'estació.

Feu clic per veure les observacions i els pronòstics meteorològics.

Per canviar el mapa: feu clic els botons verds amb una creu de color negre per apropar; al botó verd amb un guió per allunyar la imatge; o en les fletxes verdes per a mapes adjacents.


METAR-TAF: